aviador You're here:

KCDI Decoded Metar

in
Report Time2017-05-28 23:53:00
UTC Time2017-05-29 00:04:21
Flight Rules vfr VFR
Wind210° at 03 kt
W.Decomp.*RWY 22: 3.0 kt HW 0.5 kt LCW
Visibility9999 m
Phenomena:N/A
Clouds:Scattered 038 Hf
Overcast 046 Hf
Expected CloudBase > 2,800 ft AGL from Temp-Dew spread
Ceiling4,600 ft
Temp24°C
Dew Point17°C (65% RH)
QNH1008 hPa
Raw Report
KCDI 282353Z AUTO 21003KT 10SM SCT038 OVC046 24/17 A2976 RMK AO2
T02350172 10269 20235=

Extra information for KCDI:More info

Social comments